Time;durP1;ratioP1;P1;durP2;ratioP2;P2;SDS_P1;SDS_P2;PMS_P1;PMS_P2;Temp;Humidity;BMP_temperature;BMP_pressure;BME280_temperature;BME280_humidity;BME280_pressure;Samples;Min_cycle;Max_cycle;Signal;HPM_P1;HPM_P2
2022/01/27 00:07:35;;;;;;;32.57;23.87;;;4.30;50.80;;;;;;20752;6837;118883;-86
2022/01/27 00:12:46;;;;;;;40.07;31.37;;;3.90;52.30;;;;;;20530;6840;307676;-85
2022/01/27 00:15:14;;;;;;;34.70;25.33;;;4.00;52.10;;;;;;20748;6842;118493;-85
2022/01/27 00:17:43;;;;;;;35.10;24.50;;;4.00;52.10;;;;;;20746;6840;117340;-86
2022/01/27 00:20:05;;;;;;;38.08;30.33;;;3.70;52.50;;;;;;20516;6841;313180;-84
2022/01/27 00:22:30;;;;;;;35.43;25.73;;;3.70;52.60;;;;;;20654;6865;118209;-85
2022/01/27 00:24:56;;;;;;;36.30;29.57;;;3.70;52.30;;;;;;20478;6847;315129;-86
2022/01/27 00:27:22;;;;;;;32.17;24.80;;;3.70;52.30;;;;;;20676;6865;117491;-83
2022/01/27 00:29:48;;;;;;;39.22;30.35;;;3.60;52.10;;;;;;20463;6865;309307;-83
2022/01/27 00:32:13;;;;;;;32.87;25.13;;;3.70;52.40;;;;;;20678;6865;118084;-84
2022/01/27 00:34:39;;;;;;;32.13;22.58;;;3.60;52.40;;;;;;20664;6853;117669;-84
2022/01/27 00:37:07;;;;;;;33.23;23.50;;;3.40;52.70;;;;;;20715;6853;118668;-85
2022/01/27 00:39:32;;;;;;;31.50;21.87;;;3.20;53.20;;;;;;20788;6838;123627;-85
2022/01/27 00:41:58;;;;;;;40.90;30.67;;;3.00;53.50;;;;;;20585;6838;306479;-83
2022/01/27 00:44:23;;;;;;;37.35;25.30;;;3.20;53.90;;;;;;20750;6853;116673;-84
2022/01/27 00:46:51;;;;;;;40.30;31.52;;;3.20;53.60;;;;;;20562;6838;320303;-86
2022/01/27 00:49:16;;;;;;;35.10;25.50;;;3.30;53.40;;;;;;20782;6838;119579;-85
2022/01/27 00:51:45;;;;;;;33.35;24.17;;;3.30;53.20;;;;;;20722;6856;117548;-84
2022/01/27 00:54:14;;;;;;;32.83;23.77;;;3.20;53.50;;;;;;20676;6853;117754;-83
2022/01/27 00:56:48;;;;;;;28.38;21.65;;;2.80;54.20;;;;;;20655;6868;117951;-83
2022/01/27 01:02:05;;;;;;;35.05;29.55;;;2.70;54.40;;;;;;20467;6866;283767;-82
2022/01/27 01:04:24;;;;;;;34.77;29.50;;;2.90;54.20;;;;;;20414;6864;285905;-83
2022/01/27 01:06:48;;;;;;;35.22;29.55;;;3.50;52.10;;;;;;20430;6864;308166;-86
2022/01/27 01:12:26;;;;;;;33.50;29.00;;;3.70;51.60;;;;;;20470;6864;312791;-83
2022/01/27 01:14:35;;;;;;;34.83;24.33;;;3.90;51.00;;;;;;20671;6838;117679;-83
2022/01/27 01:17:41;;;;;;;33.20;28.43;;;3.70;50.90;;;;;;20501;6838;311507;-83
2022/01/27 01:29:25;;;;;;;32.10;22.43;;;3.40;51.10;;;;;;20743;6842;117771;-83
2022/01/27 01:35:00;;;;;;;34.33;27.87;;;3.10;52.70;;;;;;20536;6841;292182;-83
2022/01/27 01:37:24;;;;;;;31.27;22.93;;;3.40;52.00;;;;;;20714;6854;117529;-82
2022/01/27 01:39:50;;;;;;;31.67;21.83;;;3.30;51.80;;;;;;20720;6854;117186;-84
2022/01/27 01:42:16;;;;;;;30.83;26.03;;;3.10;52.40;;;;;;20505;6854;309810;-83
2022/01/27 01:44:43;;;;;;;30.90;26.53;;;3.00;52.30;;;;;;20491;6836;308463;-83
2022/01/27 01:47:11;;;;;;;31.90;27.13;;;3.50;50.70;;;;;;20563;6836;307751;-85
2022/01/27 01:49:38;;;;;;;33.03;27.90;;;3.70;50.30;;;;;;20560;6836;307072;-82
2022/01/27 01:52:03;;;;;;;33.22;28.60;;;3.70;50.30;;;;;;20544;6836;336744;-83
2022/01/27 01:54:29;;;;;;;31.77;22.93;;;3.80;49.80;;;;;;20758;6836;116959;-86
2022/01/27 01:56:54;;;;;;;31.67;26.20;;;3.60;50.00;;;;;;20539;6836;310689;-83
2022/01/27 01:59:20;;;;;;;33.10;27.65;;;3.50;50.40;;;;;;20435;6853;290899;-84
2022/01/27 02:01:45;;;;;;;33.17;28.00;;;3.60;50.10;;;;;;20518;6847;283033;-85
2022/01/27 02:04:12;;;;;;;32.42;27.77;;;3.80;49.70;;;;;;20575;6830;336581;-85
2022/01/27 02:06:43;;;;;;;33.90;28.52;;;3.80;49.00;;;;;;20484;6853;282865;-83
2022/01/27 02:19:44;;;;;;;30.90;21.83;;;3.70;49.30;;;;;;20751;6838;116498;-83
2022/01/27 02:22:10;;;;;;;26.43;20.77;;;3.30;50.20;;;;;;20707;6856;118137;-84
2022/01/27 02:24:35;;;;;;;33.90;26.95;;;3.00;50.80;;;;;;20518;6842;308333;-85
2022/01/27 02:27:01;;;;;;;29.83;22.23;;;2.90;51.00;;;;;;20747;6842;118454;-83
2022/01/27 02:29:27;;;;;;;28.40;21.27;;;2.90;51.00;;;;;;20759;6838;116400;-83
2022/01/27 02:31:52;;;;;;;31.60;26.58;;;2.70;51.40;;;;;;20530;6838;306824;-84
2022/01/27 02:34:18;;;;;;;31.23;21.83;;;2.80;51.60;;;;;;20757;6838;117349;-83
2022/01/27 02:36:43;;;;;;;33.05;27.87;;;2.80;51.50;;;;;;20525;6838;278109;-83
2022/01/27 02:39:10;;;;;;;29.60;21.27;;;2.80;51.30;;;;;;20770;6838;116744;-83
2022/01/27 02:41:45;;;;;;;31.57;25.97;;;2.80;51.30;;;;;;20557;6837;307752;-83
2022/01/27 02:44:34;;;;;;;30.50;22.03;;;2.90;51.30;;;;;;20753;6838;117194;-84
2022/01/27 02:47:01;;;;;;;28.20;20.17;;;2.80;51.30;;;;;;20744;6838;118127;-84
2022/01/27 02:49:26;;;;;;;25.93;19.20;;;2.60;51.40;;;;;;20759;6838;119927;-83
2022/01/27 02:51:52;;;;;;;28.60;19.35;;;2.30;51.80;;;;;;20762;6838;117919;-86
2022/01/27 02:54:17;;;;;;;33.45;26.70;;;2.10;52.20;;;;;;20556;6838;280307;-85
2022/01/27 02:56:47;;;;;;;33.17;27.30;;;2.30;52.20;;;;;;20524;6838;307245;-83
2022/01/27 02:59:12;;;;;;;32.13;26.90;;;2.60;51.50;;;;;;20549;6838;307547;-85
2022/01/27 03:01:38;;;;;;;29.70;20.90;;;2.90;51.00;;;;;;20763;6838;117315;-83
2022/01/27 03:04:03;;;;;;;31.50;26.33;;;2.80;50.80;;;;;;20551;6838;322904;-85
2022/01/27 03:06:30;;;;;;;28.55;21.55;;;2.80;50.90;;;;;;20763;6838;116479;-84
2022/01/27 03:08:55;;;;;;;30.53;20.43;;;2.80;50.90;;;;;;20729;6838;118025;-83
2022/01/27 03:11:21;;;;;;;28.95;19.77;;;2.60;51.40;;;;;;20759;6838;117405;-84
2022/01/27 03:13:46;;;;;;;25.70;18.77;;;2.40;51.80;;;;;;20710;6838;116942;-83
2022/01/27 03:16:12;;;;;;;31.07;25.73;;;2.20;52.10;;;;;;20539;6838;307802;-84
2022/01/27 03:18:38;;;;;;;25.95;20.08;;;2.30;51.90;;;;;;20748;6838;128018;-85
2022/01/27 03:21:03;;;;;;;29.03;20.30;;;2.30;51.70;;;;;;20769;6838;118104;-86
2022/01/27 03:23:29;;;;;;;28.87;24.67;;;2.20;52.10;;;;;;20543;6838;321195;-85
2022/01/27 03:25:54;;;;;;;28.07;20.50;;;2.30;52.00;;;;;;20769;6838;117492;-85
2022/01/27 03:28:24;;;;;;;30.85;25.73;;;2.40;51.90;;;;;;20547;6838;306955;-86
2022/01/27 03:30:45;;;;;;;25.73;19.77;;;2.50;51.60;;;;;;20724;6838;118078;-83
2022/01/27 03:33:11;;;;;;;27.48;19.35;;;2.50;51.40;;;;;;20760;6838;116599;-84
2022/01/27 03:35:36;;;;;;;25.90;18.43;;;2.40;51.80;;;;;;20766;6838;117971;-82
2022/01/27 03:38:02;;;;;;;26.90;19.13;;;2.20;52.10;;;;;;20767;6838;117409;-83
2022/01/27 03:40:29;;;;;;;27.80;19.37;;;2.10;52.50;;;;;;20763;6838;118903;-83
2022/01/27 03:43:04;;;;;;;29.92;24.77;;;2.00;52.70;;;;;;20518;6838;277926;-83
2022/01/27 03:45:20;;;;;;;29.40;24.25;;;2.20;52.50;;;;;;20522;6838;310931;-86
2022/01/27 03:47:45;;;;;;;27.87;24.03;;;2.60;51.90;;;;;;20557;6838;278391;-83
2022/01/27 03:50:13;;;;;;;29.65;25.17;;;3.20;50.40;;;;;;20541;6838;307768;-83
2022/01/27 03:52:38;;;;;;;27.17;20.60;;;3.20;50.40;;;;;;20758;6837;126986;-85
2022/01/27 03:55:04;;;;;;;26.48;19.15;;;3.20;50.30;;;;;;20775;6838;118056;-84
2022/01/27 03:57:30;;;;;;;26.67;18.93;;;2.60;51.00;;;;;;20772;6838;116520;-85
2022/01/27 03:59:56;;;;;;;26.27;18.43;;;2.60;51.00;;;;;;20776;6838;116596;-84
2022/01/27 04:02:22;;;;;;;25.00;18.02;;;2.40;51.50;;;;;;20776;6838;116497;-84
2022/01/27 04:04:47;;;;;;;30.95;24.83;;;2.20;51.90;;;;;;20499;6838;308979;-83
2022/01/27 04:07:13;;;;;;;29.87;21.10;;;2.40;52.20;;;;;;20765;6838;116561;-84
2022/01/27 04:09:39;;;;;;;31.67;25.30;;;2.50;51.90;;;;;;20554;6838;337419;-83
2022/01/27 04:12:05;;;;;;;26.10;19.87;;;2.50;51.90;;;;;;20733;6838;118053;-83
2022/01/27 04:14:32;;;;;;;28.33;19.83;;;2.50;51.70;;;;;;20764;6838;117048;-84
2022/01/27 04:16:57;;;;;;;30.60;21.30;;;2.40;52.00;;;;;;20748;6838;117653;-84
2022/01/27 04:19:23;;;;;;;33.00;21.37;;;2.30;52.30;;;;;;20771;6838;117306;-85
2022/01/27 04:21:48;;;;;;;30.20;21.67;;;2.10;52.50;;;;;;20773;6838;117509;-83
2022/01/27 04:24:16;;;;;;;36.78;28.15;;;2.00;52.80;;;;;;20561;6838;306786;-83
2022/01/27 04:26:44;;;;;;;33.47;22.70;;;2.10;52.70;;;;;;20749;6838;122916;-84
2022/01/27 04:29:06;;;;;;;31.47;21.27;;;2.10;53.20;;;;;;20769;6838;124720;-83
2022/01/27 04:31:32;;;;;;;31.13;22.47;;;2.10;52.60;;;;;;20778;6838;119911;-84
2022/01/27 04:33:58;;;;;;;35.20;22.67;;;2.00;52.80;;;;;;20778;6838;120388;-83
2022/01/27 04:36:29;;;;;;;27.27;19.80;;;1.90;53.10;;;;;;20774;6838;117422;-84
2022/01/27 04:38:59;;;;;;;29.80;20.97;;;1.80;53.30;;;;;;20747;6838;118244;-85
2022/01/27 04:41:24;;;;;;;28.47;20.67;;;1.80;53.50;;;;;;20731;6838;118115;-84
2022/01/27 04:48:58;;;;;;;35.70;22.10;;;1.90;53.30;;;;;;20750;6838;117466;-83
2022/01/27 04:51:18;;;;;;;35.83;28.37;;;2.00;52.90;;;;;;20488;6838;307594;-84
2022/01/27 04:53:48;;;;;;;32.70;23.20;;;2.20;52.80;;;;;;20755;6838;117613;-85
2022/01/27 04:56:12;;;;;;;32.03;21.17;;;2.20;52.50;;;;;;20744;6838;117458;-84
2022/01/27 04:58:32;;;;;;;35.85;28.48;;;2.10;52.70;;;;;;20546;6838;311593;-85
2022/01/27 05:01:00;;;;;;;33.53;24.37;;;2.20;52.80;;;;;;20749;6838;118332;-84
2022/01/27 05:03:35;;;;;;;35.87;28.30;;;2.30;52.60;;;;;;20543;6838;336856;-84
2022/01/27 05:05:53;;;;;;;38.63;30.43;;;2.40;52.50;;;;;;20523;6837;337668;-84
2022/01/27 05:08:19;;;;;;;36.40;29.50;;;2.70;51.60;;;;;;20558;6838;334773;-84
2022/01/27 05:10:43;;;;;;;33.90;24.12;;;2.90;50.90;;;;;;20767;6838;117479;-85
2022/01/27 05:13:13;;;;;;;33.23;23.10;;;2.90;50.90;;;;;;20797;6838;116667;-87
2022/01/27 05:15:43;;;;;;;33.17;22.37;;;2.60;51.30;;;;;;20795;6838;124235;-86
2022/01/27 05:18:02;;;;;;;31.70;22.07;;;2.30;51.70;;;;;;20788;6838;121728;-86
2022/01/27 05:20:28;;;;;;;37.08;29.00;;;2.10;52.00;;;;;;20594;6838;278709;-85
2022/01/27 05:22:54;;;;;;;36.10;24.03;;;2.20;51.70;;;;;;20762;6838;117445;-85
2022/01/27 05:25:20;;;;;;;33.27;21.53;;;2.20;51.70;;;;;;20776;6838;117861;-84
2022/01/27 05:27:45;;;;;;;35.25;27.87;;;2.10;52.00;;;;;;20565;6838;312030;-86
2022/01/27 05:30:11;;;;;;;37.63;24.40;;;2.20;52.10;;;;;;20774;6838;117466;-84
2022/01/27 05:32:37;;;;;;;37.53;28.87;;;2.40;52.50;;;;;;20535;6838;312348;-85
2022/01/27 05:35:03;;;;;;;32.60;22.37;;;2.30;51.60;;;;;;20759;6838;118044;-88
2022/01/27 05:37:28;;;;;;;33.40;22.37;;;2.30;51.30;;;;;;20760;6838;117421;-85
2022/01/27 05:39:54;;;;;;;33.27;22.80;;;2.10;51.60;;;;;;20755;6838;118886;-84
2022/01/27 05:42:19;;;;;;;38.53;28.50;;;1.90;51.90;;;;;;20533;6838;308352;-83
2022/01/27 05:44:45;;;;;;;39.50;30.17;;;2.00;51.60;;;;;;20512;6838;308174;-83
2022/01/27 05:47:11;;;;;;;37.58;24.92;;;2.30;50.80;;;;;;20754;6838;117712;-82
2022/01/27 05:49:38;;;;;;;38.27;29.30;;;2.30;50.70;;;;;;20543;6838;314587;-83
2022/01/27 05:52:03;;;;;;;34.67;24.50;;;2.30;50.70;;;;;;20733;6838;119220;-86
2022/01/27 05:54:33;;;;;;;34.57;22.57;;;2.20;50.70;;;;;;20737;6838;118765;-86
2022/01/27 05:56:57;;;;;;;40.73;29.40;;;2.00;51.30;;;;;;20491;6838;299383;-86
2022/01/27 05:59:22;;;;;;;38.10;24.00;;;2.00;51.30;;;;;;20739;6838;117602;-86
2022/01/27 06:02:44;;;;;;;38.42;30.08;;;2.00;51.30;;;;;;20502;6838;282454;-86
2022/01/27 06:05:11;;;;;;;33.57;22.93;;;2.00;51.20;;;;;;20730;6838;118032;-86
2022/01/27 06:07:36;;;;;;;41.00;30.33;;;1.90;51.00;;;;;;20536;6838;278741;-87
2022/01/27 06:10:02;;;;;;;43.65;31.35;;;1.90;51.00;;;;;;20525;6838;336962;-86
2022/01/27 06:12:28;;;;;;;35.42;24.55;;;2.20;50.50;;;;;;20734;6838;117532;-86
2022/01/27 06:14:53;;;;;;;38.22;28.67;;;2.10;50.40;;;;;;20511;6838;287300;-86
2022/01/27 06:17:19;;;;;;;42.20;30.88;;;2.10;50.80;;;;;;20526;6837;310597;-86
2022/01/27 06:19:46;;;;;;;38.75;29.52;;;2.30;50.40;;;;;;20524;6838;303976;-86
2022/01/27 06:22:14;;;;;;;37.73;25.03;;;2.50;49.90;;;;;;20737;6838;117812;-86
2022/01/27 06:24:43;;;;;;;34.40;21.93;;;2.30;49.80;;;;;;20718;6838;121747;-87
2022/01/27 06:27:08;;;;;;;35.27;22.50;;;1.90;50.20;;;;;;20725;6838;117654;-87
2022/01/27 06:29:34;;;;;;;39.00;28.15;;;1.60;50.80;;;;;;20521;6838;277902;-87
2022/01/27 06:31:59;;;;;;;32.67;23.00;;;1.60;51.10;;;;;;20717;6838;117297;-88
2022/01/27 06:34:25;;;;;;;35.07;22.67;;;1.60;51.20;;;;;;20725;6838;118023;-87
2022/01/27 06:36:50;;;;;;;35.20;21.45;;;1.40;51.40;;;;;;20729;6838;118975;-86
2022/01/27 06:39:16;;;;;;;38.33;27.95;;;1.20;51.80;;;;;;20527;6838;308266;-87
2022/01/27 06:41:43;;;;;;;35.70;24.20;;;1.30;52.00;;;;;;20739;6838;117754;-87
2022/01/27 06:44:07;;;;;;;38.97;29.12;;;1.30;51.70;;;;;;20500;6838;308186;-86
2022/01/27 06:46:35;;;;;;;36.90;23.70;;;1.40;51.50;;;;;;20738;6838;118989;-86
2022/01/27 06:48:58;;;;;;;34.20;21.45;;;1.40;52.00;;;;;;20717;6838;118421;-87
2022/01/27 06:51:27;;;;;;;38.25;28.27;;;1.20;51.30;;;;;;20529;6838;294655;-88
2022/01/27 06:53:51;;;;;;;34.67;23.20;;;1.30;51.30;;;;;;20726;6838;117883;-86
2022/01/27 06:56:17;;;;;;;40.15;29.77;;;1.20;51.10;;;;;;20519;6838;278893;-86
2022/01/27 06:58:42;;;;;;;36.13;23.00;;;1.30;51.80;;;;;;20738;6838;118637;-82
2022/01/27 07:01:08;;;;;;;37.97;28.90;;;1.40;51.70;;;;;;20550;6838;307233;-84
2022/01/27 07:03:34;;;;;;;32.65;22.55;;;1.40;51.50;;;;;;20748;6838;116849;-86
2022/01/27 07:06:01;;;;;;;34.20;23.10;;;1.40;51.20;;;;;;20753;6838;117844;-88
2022/01/27 07:08:27;;;;;;;33.93;21.50;;;1.20;51.60;;;;;;20741;6838;117365;-87
2022/01/27 07:10:52;;;;;;;32.87;21.57;;;1.10;52.00;;;;;;20722;6838;125363;-88
2022/01/27 07:13:19;;;;;;;36.80;28.58;;;0.90;52.20;;;;;;20504;6838;308228;-88
2022/01/27 07:15:45;;;;;;;31.40;22.77;;;1.00;51.80;;;;;;20728;6838;117885;-88
2022/01/27 07:18:10;;;;;;;36.92;28.20;;;1.10;51.60;;;;;;20530;6838;307374;-88
2022/01/27 07:20:36;;;;;;;35.80;24.87;;;1.20;51.90;;;;;;20721;6838;117661;-89
2022/01/27 07:23:02;;;;;;;34.23;22.17;;;1.10;52.00;;;;;;20740;6838;118523;-88
2022/01/27 07:25:28;;;;;;;31.50;20.60;;;1.10;51.90;;;;;;20700;6838;118589;-89
2022/01/27 07:27:53;;;;;;;35.37;26.73;;;1.00;52.20;;;;;;20535;6837;281751;-90
2022/01/27 07:30:19;;;;;;;35.35;28.02;;;1.10;52.80;;;;;;20522;6838;337169;-89
2022/01/27 07:32:44;;;;;;;33.88;28.23;;;1.50;51.70;;;;;;20467;6838;337568;-89
2022/01/27 07:35:10;;;;;;;48.57;29.83;;;1.80;51.00;;;;;;20738;6838;118646;-88
2022/01/27 07:37:36;;;;;;;38.55;29.20;;;1.80;51.00;;;;;;20495;6838;280636;-88
2022/01/27 07:40:07;;;;;;;32.77;23.37;;;1.90;51.20;;;;;;20724;6838;117807;-89
2022/01/27 07:42:32;;;;;;;31.37;21.23;;;1.80;51.10;;;;;;20729;6838;118017;-87
2022/01/27 07:44:58;;;;;;;38.15;29.60;;;1.60;51.50;;;;;;20515;6838;279304;-83
2022/01/27 07:47:23;;;;;;;32.80;22.98;;;1.70;51.10;;;;;;20741;6838;117368;-84
2022/01/27 07:49:51;;;;;;;33.97;22.20;;;1.70;51.00;;;;;;20760;6838;117900;-86
2022/01/27 07:52:18;;;;;;;37.77;27.93;;;1.60;51.30;;;;;;20539;6838;295714;-87
2022/01/27 07:54:42;;;;;;;34.08;23.40;;;1.70;51.50;;;;;;20727;6838;117806;-85
2022/01/27 07:57:07;;;;;;;32.90;21.80;;;1.80;51.40;;;;;;20742;6838;117520;-85
2022/01/27 07:59:33;;;;;;;30.03;21.73;;;1.60;51.50;;;;;;20761;6838;116699;-83
2022/01/27 08:01:59;;;;;;;30.97;22.40;;;1.50;51.90;;;;;;20800;6838;118682;-85
2022/01/27 08:04:26;;;;;;;41.37;30.30;;;1.60;52.00;;;;;;20501;6838;308265;-86
2022/01/27 08:06:51;;;;;;;37.85;29.73;;;1.60;51.90;;;;;;20504;6838;281394;-85
2022/01/27 08:09:17;;;;;;;39.57;30.53;;;1.90;51.20;;;;;;20520;6838;337254;-84
2022/01/27 08:11:42;;;;;;;37.40;29.50;;;2.40;50.00;;;;;;20510;6838;278351;-84
2022/01/27 08:14:08;;;;;;;40.13;30.73;;;2.40;50.00;;;;;;20523;6838;308156;-84
2022/01/27 08:16:34;;;;;;;33.67;24.43;;;2.60;49.40;;;;;;20706;6838;120448;-85
2022/01/27 08:19:00;;;;;;;37.70;29.55;;;2.50;49.70;;;;;;20517;6838;312217;-84
2022/01/27 08:21:26;;;;;;;36.87;29.47;;;2.50;49.70;;;;;;20506;6838;307826;-84
2022/01/27 08:23:53;;;;;;;34.30;24.80;;;2.70;49.10;;;;;;20722;6838;117510;-84
2022/01/27 08:26:28;;;;;;;37.25;29.83;;;2.60;49.10;;;;;;20527;6838;278637;-84
2022/01/27 08:28:52;;;;;;;38.92;30.95;;;2.60;49.30;;;;;;20523;6838;288287;-84
2022/01/27 08:31:09;;;;;;;38.60;30.08;;;2.90;48.90;;;;;;20440;6838;305881;-85
2022/01/27 08:33:38;;;;;;;37.43;30.17;;;2.90;48.90;;;;;;20518;6838;277397;-84
2022/01/27 08:36:01;;;;;;;37.53;29.63;;;3.10;48.50;;;;;;20511;6838;339720;-83
2022/01/27 08:38:27;;;;;;;33.57;24.50;;;3.00;48.50;;;;;;20719;6836;117313;-85
2022/01/27 08:40:54;;;;;;;34.87;23.93;;;2.70;49.50;;;;;;20706;6838;124375;-84
2022/01/27 08:43:19;;;;;;;35.27;24.03;;;2.70;49.10;;;;;;20736;6838;119515;-84
2022/01/27 08:45:46;;;;;;;38.43;30.43;;;2.40;50.30;;;;;;20512;6838;278727;-84
2022/01/27 08:48:13;;;;;;;35.67;25.00;;;2.50;49.90;;;;;;20730;6838;117456;-84
2022/01/27 08:50:36;;;;;;;39.25;30.92;;;2.50;50.00;;;;;;20427;6838;278984;-84
2022/01/27 08:53:02;;;;;;;40.33;31.33;;;2.60;50.00;;;;;;20479;6838;311568;-85
2022/01/27 08:55:27;;;;;;;34.77;24.40;;;2.80;49.50;;;;;;20680;6838;119849;-84
2022/01/27 08:57:54;;;;;;;34.00;24.53;;;2.80;49.50;;;;;;20732;6838;117247;-84
2022/01/27 09:00:20;;;;;;;36.33;29.50;;;2.60;49.90;;;;;;20548;6838;307225;-84
2022/01/27 09:02:46;;;;;;;33.13;24.03;;;2.60;50.00;;;;;;20743;6838;119454;-84
2022/01/27 09:05:16;;;;;;;36.15;29.27;;;2.60;50.10;;;;;;20516;6838;308150;-85
2022/01/27 09:07:41;;;;;;;33.37;24.13;;;2.70;50.10;;;;;;20723;6838;117863;-84
2022/01/27 09:10:07;;;;;;;35.35;28.48;;;2.70;50.20;;;;;;20525;6838;278396;-84
2022/01/27 09:12:33;;;;;;;36.63;28.93;;;2.80;50.00;;;;;;20486;6838;317776;-85
2022/01/27 09:15:01;;;;;;;36.72;28.87;;;3.40;49.90;;;;;;20518;6838;308155;-84
2022/01/27 09:17:26;;;;;;;28.87;22.90;;;3.40;49.30;;;;;;20678;6838;117359;-85
2022/01/27 09:19:50;;;;;;;30.73;24.00;;;3.30;49.10;;;;;;20746;6838;117652;-84
2022/01/27 09:22:18;;;;;;;32.67;22.70;;;2.90;50.40;;;;;;20749;6838;118151;-85
2022/01/27 09:27:18;;;;;;;28.90;20.47;;;2.70;50.30;;;;;;20299;6838;117592;-86
2022/01/27 09:29:44;;;;;;;33.13;27.07;;;2.60;50.70;;;;;;20540;6838;282574;-86
2022/01/27 09:32:09;;;;;;;30.10;20.73;;;2.70;50.30;;;;;;20787;6838;118000;-86
2022/01/27 09:34:35;;;;;;;31.42;25.73;;;2.80;50.20;;;;;;20588;6838;280114;-86
2022/01/27 09:37:02;;;;;;;29.58;25.40;;;2.90;49.80;;;;;;20415;6838;309483;-86
2022/01/27 09:39:26;;;;;;;29.45;25.98;;;3.20;48.90;;;;;;20546;6838;309014;-87
2022/01/27 09:41:55;;;;;;;31.70;23.50;;;3.60;48.60;;;;;;20728;6838;117484;-85
2022/01/27 09:44:24;;;;;;;31.80;26.30;;;3.50;48.50;;;;;;20511;6838;313111;-85
2022/01/27 09:46:47;;;;;;;32.70;27.83;;;3.60;48.30;;;;;;20486;6838;312601;-84
2022/01/27 09:49:18;;;;;;;28.93;21.40;;;3.80;47.90;;;;;;20731;6838;117808;-86
2022/01/27 09:51:40;;;;;;;31.23;26.95;;;3.70;48.10;;;;;;20448;6837;320340;-85
2022/01/27 09:54:03;;;;;;;27.27;20.53;;;3.70;47.90;;;;;;20629;6853;117879;-87
2022/01/27 09:56:29;;;;;;;31.87;25.35;;;3.80;47.70;;;;;;20523;6845;280345;-86
2022/01/27 09:58:55;;;;;;;28.87;25.58;;;3.70;47.60;;;;;;20538;6838;341456;-84
2022/01/27 10:01:21;;;;;;;42.63;33.27;;;3.90;47.40;;;;;;20768;6838;117190;-84
2022/01/27 10:03:56;;;;;;;33.73;22.03;;;3.90;47.40;;;;;;20770;6838;117567;-84
2022/01/27 10:06:26;;;;;;;28.47;21.83;;;3.70;48.00;;;;;;20759;6838;117841;-84
2022/01/27 10:09:19;;;;;;;29.98;23.95;;;3.50;48.60;;;;;;20685;6838;123841;-85
2022/01/27 10:11:44;;;;;;;25.43;19.20;;;3.20;49.40;;;;;;20721;6838;119281;-87
2022/01/27 10:14:26;;;;;;;29.23;24.75;;;3.20;49.40;;;;;;20504;6838;336669;-88
2022/01/27 10:16:52;;;;;;;27.43;20.13;;;3.40;48.80;;;;;;20734;6838;120915;-89
2022/01/27 10:19:17;;;;;;;28.40;23.60;;;3.50;48.60;;;;;;20538;6838;282508;-88
2022/01/27 10:21:43;;;;;;;27.85;23.87;;;4.10;48.50;;;;;;20518;6838;311803;-88
2022/01/27 10:24:26;;;;;;;25.00;19.33;;;4.10;48.50;;;;;;20737;6838;117998;-88
2022/01/27 10:26:54;;;;;;;26.87;22.07;;;4.30;48.60;;;;;;20480;6838;307947;-86
2022/01/27 10:29:17;;;;;;;24.27;21.60;;;4.50;48.30;;;;;;20505;6838;312476;-87
2022/01/27 10:31:41;;;;;;;24.30;20.70;;;4.90;47.60;;;;;;20514;6838;279242;-84
2022/01/27 10:34:07;;;;;;;23.50;20.97;;;5.20;46.90;;;;;;20523;6838;308248;-86
2022/01/27 10:36:33;;;;;;;24.42;21.48;;;5.50;46.30;;;;;;20535;6838;336996;-86
2022/01/27 10:38:58;;;;;;;23.83;20.63;;;5.70;46.10;;;;;;20525;6838;307472;-85
2022/01/27 10:41:27;;;;;;;21.45;16.62;;;5.80;45.60;;;;;;20752;6838;118023;-87
2022/01/27 10:44:13;;;;;;;23.95;20.60;;;5.70;45.80;;;;;;20505;6838;280337;-86
2022/01/27 10:46:43;;;;;;;19.50;16.60;;;5.60;46.40;;;;;;20700;6838;118817;-88
2022/01/27 10:49:09;;;;;;;25.85;21.30;;;5.60;46.80;;;;;;20472;6838;278680;-86
2022/01/27 10:51:33;;;;;;;24.05;21.42;;;5.60;46.40;;;;;;20500;6838;304736;-85
2022/01/27 10:54:04;;;;;;;24.87;21.35;;;5.90;45.40;;;;;;20507;6838;297261;-86
2022/01/27 10:56:24;;;;;;;24.27;18.20;;;6.10;45.60;;;;;;20674;6838;119896;-85
2022/01/27 10:58:50;;;;;;;21.50;17.33;;;6.00;45.50;;;;;;20609;6838;119355;-88
2022/01/27 11:01:25;;;;;;;22.00;16.50;;;5.80;46.20;;;;;;20703;6838;117679;-86
2022/01/27 11:03:51;;;;;;;20.93;17.23;;;5.60;47.30;;;;;;20733;6837;117574;-87
2022/01/27 11:06:17;;;;;;;20.23;15.97;;;5.60;47.40;;;;;;20737;6838;117401;-83
2022/01/27 11:08:42;;;;;;;22.77;20.37;;;5.60;47.90;;;;;;20414;6838;311837;-86
2022/01/27 11:11:08;;;;;;;21.53;18.13;;;5.80;47.10;;;;;;20683;6838;117572;-85
2022/01/27 11:13:35;;;;;;;22.50;20.20;;;6.00;46.80;;;;;;20523;6838;319673;-85
2022/01/27 11:15:59;;;;;;;20.62;17.00;;;6.10;44.60;;;;;;20504;6909;117953;-85
2022/01/27 11:18:27;;;;;;;21.23;17.42;;;6.10;44.90;;;;;;20518;6909;117750;-85
2022/01/27 11:21:00;;;;;;;19.67;16.03;;;5.90;45.20;;;;;;20455;6909;120907;-84
2022/01/27 11:25:51;;;;;;;18.77;15.33;;;5.40;46.10;;;;;;20456;6909;116908;-85
2022/01/27 11:28:15;;;;;;;20.65;16.90;;;5.30;46.40;;;;;;20487;6909;118261;-86
2022/01/27 11:31:11;;;;;;;23.92;16.10;;;5.20;46.70;;;;;;20446;6909;122958;-86
2022/01/27 11:33:37;;;;;;;20.33;16.50;;;5.10;46.90;;;;;;20488;6909;123449;-86
2022/01/27 11:36:10;;;;;;;23.45;15.95;;;4.90;47.00;;;;;;20510;6909;123399;-87
2022/01/27 11:38:39;;;;;;;18.90;14.97;;;4.80;47.30;;;;;;20455;6909;120829;-88
2022/01/27 11:41:05;;;;;;;24.53;19.33;;;4.80;47.40;;;;;;20255;6910;280590;-85
2022/01/27 11:43:35;;;;;;;23.60;20.23;;;5.00;46.10;;;;;;20323;6910;280752;-87
2022/01/27 11:46:14;;;;;;;23.45;20.55;;;5.40;45.60;;;;;;20322;6910;319543;-86
2022/01/27 11:48:39;;;;;;;21.87;17.27;;;5.80;45.00;;;;;;20517;6910;118420;-87
2022/01/27 11:51:09;;;;;;;21.73;16.67;;;5.70;45.00;;;;;;20530;6910;117125;-89
2022/01/27 11:53:49;;;;;;;24.02;20.08;;;5.50;45.40;;;;;;20290;6910;281065;-88
2022/01/27 11:56:07;;;;;;;22.23;19.40;;;5.60;44.80;;;;;;20221;6910;339620;-88
2022/01/27 11:58:43;;;;;;;21.33;17.20;;;5.90;44.00;;;;;;20514;6910;117892;-86
2022/01/27 12:01:14;;;;;;;22.43;17.47;;;5.70;45.80;;;;;;20447;6910;118480;-85
2022/01/27 12:03:38;;;;;;;22.33;17.60;;;5.70;45.10;;;;;;20521;6910;118136;-82
2022/01/27 12:06:22;;;;;;;19.47;15.10;;;5.60;45.50;;;;;;20524;6910;117568;-85
2022/01/27 12:08:48;;;;;;;22.67;20.20;;;5.70;45.70;;;;;;19554;6910;299004;-90
2022/01/27 12:11:41;;;;;;;22.00;17.50;;;5.70;45.10;;;;;;20516;6910;118323;-88
2022/01/27 12:14:06;;;;;;;21.97;16.70;;;5.70;45.00;;;;;;20530;6907;118315;-88
2022/01/27 12:18:58;;;;;;;20.02;17.27;;;5.60;44.90;;;;;;20538;6909;118295;-88
2022/01/27 12:21:32;;;;;;;22.47;20.07;;;5.70;45.20;;;;;;20346;6909;338399;-88
2022/01/27 12:24:19;;;;;;;23.53;20.93;;;5.80;44.80;;;;;;20359;6909;344796;-86
2022/01/27 12:27:06;;;;;;;23.10;17.57;;;6.10;44.40;;;;;;20519;6909;118378;-85
2022/01/27 12:29:42;;;;;;;24.50;16.97;;;6.10;44.70;;;;;;20566;6909;122975;-87
2022/01/27 12:32:24;;;;;;;24.20;19.60;;;5.90;46.00;;;;;;20324;6909;310362;-87
2022/01/27 12:35:01;;;;;;;22.27;19.97;;;5.90;45.00;;;;;;20298;6909;292398;-85
2022/01/27 12:37:34;;;;;;;23.10;17.83;;;6.30;44.70;;;;;;20524;6909;118326;-85
2022/01/27 12:39:59;;;;;;;20.20;15.47;;;6.30;44.90;;;;;;20508;6909;118568;-86
2022/01/27 12:42:29;;;;;;;21.30;18.60;;;6.10;45.30;;;;;;20323;6909;279227;-88
2022/01/27 12:44:57;;;;;;;19.92;17.83;;;6.20;45.20;;;;;;20336;6909;340407;-88
2022/01/27 12:47:23;;;;;;;19.63;16.33;;;6.50;44.60;;;;;;20542;6909;118058;-86
2022/01/27 12:49:48;;;;;;;19.00;15.18;;;6.50;44.80;;;;;;20543;6909;117836;-86
2022/01/27 12:52:20;;;;;;;16.60;11.70;;;6.30;45.40;;;;;;20540;6910;117836;-88
2022/01/27 12:54:44;;;;;;;17.83;15.60;;;6.20;45.80;;;;;;20300;6910;308735;-88
2022/01/27 12:57:09;;;;;;;15.57;14.02;;;6.30;46.00;;;;;;20319;6910;281420;-88
2022/01/27 12:59:38;;;;;;;16.52;12.63;;;6.60;45.10;;;;;;20534;6910;117741;-87
2022/01/27 13:02:04;;;;;;;15.50;13.90;;;6.70;45.80;;;;;;20305;6910;315440;-87
2022/01/27 13:04:29;;;;;;;15.07;11.93;;;6.70;44.50;;;;;;20516;6910;123740;-86
2022/01/27 13:06:56;;;;;;;15.25;13.05;;;6.70;44.70;;;;;;20292;6910;340281;-87
2022/01/27 13:09:21;;;;;;;12.18;10.93;;;6.70;44.70;;;;;;20519;6910;118323;-87
2022/01/27 13:11:50;;;;;;;12.52;11.23;;;6.70;45.00;;;;;;20307;6910;338840;-89
2022/01/27 13:14:13;;;;;;;12.23;10.63;;;6.80;44.80;;;;;;20501;6910;121875;-89
2022/01/27 13:16:39;;;;;;;12.43;9.77;;;6.70;45.00;;;;;;20510;6910;124209;-90
2022/01/27 13:19:11;;;;;;;11.15;10.05;;;6.60;45.60;;;;;;20341;6910;281052;-87